Terminal Aerodrome Forecast
Issued by NWS St Louis, MO

Home | Current Version | Previous Version | Text Only | Print | Product List | Glossary On
Versions: 1 2 3 4 5 6 7 8 9 10 11 12 13 14 15
512
FTUS43 KLSX 080532
TAFCOU
TAF
KCOU 080532Z 0806/0906 25005KT P6SM SKC
     FM081500 22010KT P6SM BKN200
     FM090300 24008KT P6SM BKN120=

USA.gov is the U.S. government's official web portal to all federal, state and local government web resources and services.